Time;durP1;ratioP1;P1;durP2;ratioP2;P2;SDS_P1;SDS_P2;PMS_P1;PMS_P2;Temp;Humidity;BMP_temperature;BMP_pressure;BME280_temperature;BME280_humidity;BME280_pressure;Samples;Min_cycle;Max_cycle;Signal;HPM_P1;HPM_P2
2022/10/08 00:00:50;;;;;;;20.70;10.30;;;;;;;11.09;98.87;100250.50;4171308;28;20425;-79
2022/10/08 00:03:18;;;;;;;19.33;10.37;;;;;;;11.13;98.16;100251.06;4155172;28;20234;-77
2022/10/08 00:05:58;;;;;;;19.87;10.57;;;;;;;11.17;98.70;100261.25;4169918;28;20403;-78
2022/10/08 00:08:26;;;;;;;19.93;11.07;;;;;;;11.14;98.11;100256.25;4167310;28;20234;-78
2022/10/08 00:10:55;;;;;;;22.03;11.30;;;;;;;11.07;98.77;100246.34;4147506;28;20231;-77
2022/10/08 00:13:23;;;;;;;18.27;10.53;;;;;;;11.03;99.17;100239.63;4149860;28;23275;-78
2022/10/08 00:15:50;;;;;;;19.50;11.13;;;;;;;11.13;99.02;100243.91;4155898;28;20239;-78
2022/10/08 00:18:17;;;;;;;18.97;10.37;;;;;;;11.07;98.36;100238.34;4162405;28;23141;-78
2022/10/08 00:20:44;;;;;;;23.57;11.10;;;;;;;11.08;98.02;100234.72;4145822;28;21359;-78
2022/10/08 00:23:10;;;;;;;19.43;10.43;;;;;;;10.98;99.03;100224.97;4168677;28;20374;-76
2022/10/08 00:25:41;;;;;;;19.30;10.80;;;;;;;11.07;98.97;100222.38;4167670;28;20387;-77
2022/10/08 00:28:08;;;;;;;23.30;10.83;;;;;;;11.01;98.65;100212.34;4171218;28;21807;-77
2022/10/08 00:30:37;;;;;;;23.93;10.97;;;;;;;11.01;98.88;100223.00;4165018;28;22819;-78
2022/10/08 00:33:03;;;;;;;20.73;11.60;;;;;;;10.94;99.55;100220.94;4154135;28;20242;-78
2022/10/08 00:35:35;;;;;;;20.23;10.97;;;;;;;10.94;99.15;100207.63;4171796;28;21176;-76
2022/10/08 00:38:01;;;;;;;22.57;10.77;;;;;;;10.91;99.81;100213.25;4165742;28;20249;-77
2022/10/08 00:40:29;;;;;;;18.90;11.07;;;;;;;11.07;99.09;100209.06;4163284;28;20611;-80
2022/10/08 00:42:55;;;;;;;19.50;10.33;;;;;;;10.94;99.12;100210.28;4162952;28;20240;-78
2022/10/08 00:45:22;;;;;;;20.60;10.80;;;;;;;11.01;99.02;100202.53;4175278;28;20630;-79
2022/10/08 00:47:48;;;;;;;21.03;10.50;;;;;;;10.91;99.90;100189.31;4168139;28;20243;-77
2022/10/08 00:50:25;;;;;;;18.50;10.60;;;;;;;11.03;99.56;100199.69;4162771;28;20353;-76
2022/10/08 00:52:58;;;;;;;18.57;10.40;;;;;;;11.04;98.59;100190.72;4161544;28;25960;-79
2022/10/08 00:55:28;;;;;;;18.27;10.13;;;;;;;11.07;98.28;100190.41;4168024;28;20300;-76
2022/10/08 00:58:00;;;;;;;20.20;10.97;;;;;;;10.98;98.89;100184.22;4166973;28;20690;-77
2022/10/08 01:00:27;;;;;;;23.80;12.07;;;;;;;11.00;98.89;100179.53;4156165;28;20672;-78
2022/10/08 01:02:54;;;;;;;22.23;10.73;;;;;;;10.97;99.37;100186.00;4168625;28;20297;-76
2022/10/08 01:05:32;;;;;;;24.90;11.60;;;;;;;10.89;99.44;100182.47;4168459;28;20238;-77
2022/10/08 01:08:08;;;;;;;23.40;10.73;;;;;;;10.86;99.41;100180.91;4142961;28;20234;-77
2022/10/08 01:10:59;;;;;;;17.97;10.87;;;;;;;10.78;100.00;100173.72;4155984;28;21401;-78
2022/10/08 01:13:36;;;;;;;22.97;11.17;;;;;;;10.83;100.00;100167.09;4161632;28;20236;-79
2022/10/08 01:16:09;;;;;;;21.33;10.90;;;;;;;10.88;99.69;100160.31;4166634;28;20937;-76
2022/10/08 01:18:45;;;;;;;23.03;11.43;;;;;;;10.87;100.00;100168.47;4149642;28;22953;-77
2022/10/08 01:21:42;;;;;;;21.13;10.97;;;;;;;10.86;100.00;100167.59;4160786;28;20238;-79
2022/10/08 01:25:31;;;;;;;16.87;10.47;;;;;;;10.94;100.00;100164.19;4164730;28;20250;-77
2022/10/08 01:27:30;;;;;;;23.47;11.63;;;;;;;10.83;100.00;100149.28;4157222;28;21367;-77
2022/10/08 01:30:00;;;;;;;25.00;10.73;;;;;;;10.88;100.00;100141.66;4159467;28;23582;-77
2022/10/08 01:32:30;;;;;;;18.87;11.20;;;;;;;10.84;100.00;100150.97;4172281;28;20259;-76
2022/10/08 01:35:01;;;;;;;19.57;11.30;;;;;;;10.90;100.00;100141.53;4164861;28;23478;-76
2022/10/08 01:37:31;;;;;;;21.50;11.03;;;;;;;10.86;100.00;100140.16;4166059;28;20351;-78
2022/10/08 01:40:00;;;;;;;19.97;11.73;;;;;;;10.89;100.00;100140.69;4153957;28;20246;-77
2022/10/08 01:42:27;;;;;;;22.43;11.43;;;;;;;10.89;100.00;100126.56;4167738;28;21860;-78
2022/10/08 01:44:58;;;;;;;19.63;11.00;;;;;;;10.87;100.00;100124.03;4163382;28;20257;-77
2022/10/08 01:47:29;;;;;;;20.10;11.50;;;;;;;10.83;100.00;100124.50;4152582;28;20639;-78
2022/10/08 01:50:25;;;;;;;21.10;10.83;;;;;;;10.97;100.00;100127.44;4158556;28;20296;-77
2022/10/08 01:52:57;;;;;;;20.73;11.47;;;;;;;10.93;100.00;100114.59;4172498;28;20247;-77
2022/10/08 01:55:32;;;;;;;25.93;12.13;;;;;;;10.75;100.00;100125.28;4160397;28;25597;-77
2022/10/08 01:58:03;;;;;;;18.57;10.83;;;;;;;10.76;100.00;100122.44;4159182;28;20412;-79
2022/10/08 02:00:31;;;;;;;22.23;11.20;;;;;;;10.83;100.00;100117.34;4164239;28;20242;-77
2022/10/08 02:02:57;;;;;;;24.03;11.40;;;;;;;10.80;100.00;100115.00;4160219;28;20708;-78
2022/10/08 02:05:26;;;;;;;22.60;11.17;;;;;;;10.85;100.00;100107.38;4165091;28;20245;-78
2022/10/08 02:07:53;;;;;;;21.53;11.37;;;;;;;10.91;100.00;100109.44;4162173;28;20245;-76
2022/10/08 02:10:24;;;;;;;23.70;12.07;;;;;;;10.93;100.00;100110.13;4153840;28;20272;-78
2022/10/08 02:12:50;;;;;;;21.80;11.37;;;;;;;10.74;100.00;100104.97;4155811;28;22289;-78
2022/10/08 02:15:23;;;;;;;27.63;11.83;;;;;;;10.73;100.00;100103.31;4171323;28;20333;-76
2022/10/08 02:18:10;;;;;;;23.20;12.00;;;;;;;10.71;100.00;100116.75;4171303;28;21267;-78
2022/10/08 02:20:41;;;;;;;23.17;11.03;;;;;;;10.76;100.00;100116.28;4167995;28;23838;-76
2022/10/08 02:23:14;;;;;;;21.20;11.20;;;;;;;10.67;100.00;100103.91;4165848;28;20246;-77
2022/10/08 02:25:59;;;;;;;25.57;11.70;;;;;;;10.74;100.00;100104.97;4164795;28;23590;-75
2022/10/08 02:28:54;;;;;;;25.10;11.90;;;;;;;10.67;100.00;100103.91;4181353;28;21176;-78
2022/10/08 02:31:40;;;;;;;19.77;10.63;;;;;;;10.62;100.00;100100.88;4180723;28;21495;-77
2022/10/08 02:34:25;;;;;;;22.30;11.80;;;;;;;10.56;100.00;100105.00;4176681;28;20306;-78
2022/10/08 02:37:04;;;;;;;20.53;12.17;;;;;;;10.52;100.00;100101.78;4173429;28;26238;-77
2022/10/08 02:39:33;;;;;;;25.30;12.63;;;;;;;10.60;100.00;100094.88;4168712;28;20230;-77
2022/10/08 02:42:03;;;;;;;23.13;11.70;;;;;;;10.55;100.00;100093.50;4165687;28;20343;-75
2022/10/08 02:44:34;;;;;;;23.37;12.10;;;;;;;10.57;100.00;100088.88;4162524;28;20238;-77
2022/10/08 02:47:05;;;;;;;21.47;11.67;;;;;;;10.61;100.00;100088.59;4163943;28;20349;-78
2022/10/08 02:49:36;;;;;;;21.03;11.70;;;;;;;10.62;100.00;100084.91;4156175;28;20238;-76
2022/10/08 02:52:04;;;;;;;22.67;12.07;;;;;;;10.60;100.00;100089.56;4158544;28;20417;-77
2022/10/08 02:54:36;;;;;;;22.67;12.93;;;;;;;10.60;100.00;100093.03;4154585;28;20240;-77
2022/10/08 02:57:12;;;;;;;22.77;13.13;;;;;;;10.58;100.00;100089.69;4164441;28;20243;-77
2022/10/08 02:59:39;;;;;;;21.20;12.43;;;;;;;10.62;100.00;100074.28;4155689;28;20222;-77
2022/10/08 03:02:06;;;;;;;27.60;12.60;;;;;;;10.57;100.00;100080.06;4157812;28;20274;-76
2022/10/08 03:04:39;;;;;;;21.00;11.90;;;;;;;10.61;100.00;100075.28;4158828;28;26259;-76
2022/10/08 03:07:09;;;;;;;21.80;12.40;;;;;;;10.60;100.00;100081.56;4157632;28;20512;-77
2022/10/08 03:09:39;;;;;;;22.33;12.37;;;;;;;10.55;100.00;100072.22;4160148;28;21685;-77
2022/10/08 03:12:05;;;;;;;23.27;12.53;;;;;;;10.56;100.00;100076.56;4172025;28;20251;-77
2022/10/08 03:14:35;;;;;;;22.37;12.23;;;;;;;10.64;100.00;100086.44;4172643;28;20389;-79
2022/10/08 03:17:02;;;;;;;21.83;12.53;;;;;;;10.69;100.00;100070.81;4160894;28;21751;-77
2022/10/08 03:19:29;;;;;;;38.93;12.97;;;;;;;10.60;100.00;100071.75;4167873;28;20696;-78
2022/10/08 03:21:56;;;;;;;20.87;12.97;;;;;;;10.47;100.00;100080.16;4180461;28;21758;-76
2022/10/08 03:24:22;;;;;;;26.93;13.60;;;;;;;10.62;100.00;100068.94;4164621;28;20660;-78
2022/10/08 03:26:51;;;;;;;21.73;13.10;;;;;;;10.65;100.00;100074.81;4160720;28;20230;-77
2022/10/08 03:29:17;;;;;;;22.67;12.47;;;;;;;10.50;100.00;100065.69;4173890;28;20242;-78
2022/10/08 03:31:47;;;;;;;22.40;13.40;;;;;;;10.42;100.00;100076.25;4177493;28;20238;-77
2022/10/08 03:34:13;;;;;;;23.67;13.13;;;;;;;10.56;100.00;100071.25;4164923;28;21652;-76
2022/10/08 03:36:40;;;;;;;20.63;12.47;;;;;;;10.57;100.00;100072.91;4149272;28;20327;-78
2022/10/08 03:39:09;;;;;;;19.90;13.10;;;;;;;10.53;100.00;100066.22;4180350;28;20289;-76
2022/10/08 03:41:35;;;;;;;24.50;12.90;;;;;;;10.62;100.00;100067.13;4155236;28;22263;-78
2022/10/08 03:44:03;;;;;;;22.87;12.50;;;;;;;10.54;100.00;100062.56;4164484;28;21727;-77
2022/10/08 03:46:29;;;;;;;22.47;13.03;;;;;;;10.70;100.00;100066.34;4163644;28;20253;-76
2022/10/08 03:48:56;;;;;;;21.87;12.27;;;;;;;10.59;100.00;100055.97;4175553;28;20367;-78
2022/10/08 03:51:23;;;;;;;24.50;13.13;;;;;;;10.52;100.00;100067.22;4172624;28;20598;-78
2022/10/08 03:53:49;;;;;;;27.30;13.60;;;;;;;10.69;100.00;100062.00;4149318;28;20611;-78
2022/10/08 03:56:19;;;;;;;21.73;13.10;;;;;;;10.66;100.00;100059.69;4158080;28;21152;-76
2022/10/08 03:58:46;;;;;;;28.80;13.10;;;;;;;10.54;100.00;100062.56;4154238;28;21821;-77
2022/10/08 04:01:15;;;;;;;25.87;13.37;;;;;;;10.68;100.00;100058.53;4143910;28;23401;-77
2022/10/08 04:03:43;;;;;;;25.83;13.60;;;;;;;10.75;100.00;100056.91;4165486;28;20261;-77
2022/10/08 04:06:10;;;;;;;22.33;12.50;;;;;;;10.82;100.00;100062.47;4158740;28;20306;-76
2022/10/08 04:08:37;;;;;;;20.47;13.17;;;;;;;10.85;100.00;100059.47;4163680;28;20424;-77
2022/10/08 04:11:09;;;;;;;21.80;13.43;;;;;;;10.93;100.00;100061.34;4145863;28;20254;-75
2022/10/08 04:13:36;;;;;;;26.03;14.30;;;;;;;10.92;100.00;100057.84;4155027;28;20591;-77
2022/10/08 04:16:10;;;;;;;21.37;12.83;;;;;;;11.13;100.00;100064.66;4173852;28;20246;-76
2022/10/08 04:18:37;;;;;;;21.93;12.13;;;;;;;11.10;100.00;100056.97;4169589;28;20705;-76
2022/10/08 04:21:06;;;;;;;25.53;13.43;;;;;;;11.13;100.00;100061.97;4173241;28;20309;-77
2022/10/08 04:23:34;;;;;;;24.47;13.20;;;;;;;11.18;100.00;100057.00;4165312;28;21304;-76
2022/10/08 04:26:01;;;;;;;21.10;12.30;;;;;;;11.30;100.00;100058.41;4166575;28;20319;-77
2022/10/08 04:28:29;;;;;;;25.00;12.80;;;;;;;11.37;100.00;100058.59;4156655;28;20313;-78
2022/10/08 04:31:12;;;;;;;24.27;13.07;;;;;;;11.31;100.00;100053.94;4169377;28;21087;-76
2022/10/08 04:33:39;;;;;;;21.87;12.70;;;;;;;11.38;100.00;100054.97;4176125;28;20239;-77
2022/10/08 04:36:07;;;;;;;21.60;12.63;;;;;;;11.36;100.00;100057.78;4174939;28;23599;-77
2022/10/08 04:38:34;;;;;;;30.87;13.00;;;;;;;11.47;100.00;100055.81;4165780;28;21407;-77
2022/10/08 04:41:09;;;;;;;20.27;12.90;;;;;;;11.39;100.00;100052.13;4162743;28;20589;-78
2022/10/08 04:43:37;;;;;;;21.10;11.87;;;;;;;11.51;100.00;100055.31;4166549;28;20285;-77
2022/10/08 04:46:04;;;;;;;23.90;13.00;;;;;;;11.57;100.00;100056.53;4152143;28;20253;-78
2022/10/08 04:48:31;;;;;;;23.83;13.37;;;;;;;11.60;100.00;100058.88;4161572;28;21141;-78
2022/10/08 04:50:59;;;;;;;21.93;13.00;;;;;;;11.64;100.00;100049.56;4166762;28;22189;-77
2022/10/08 04:53:26;;;;;;;24.17;14.03;;;;;;;11.65;100.00;100051.22;4174945;28;20337;-78
2022/10/08 04:55:54;;;;;;;19.63;13.10;;;;;;;11.80;100.00;100048.78;4160996;28;20424;-76
2022/10/08 04:58:22;;;;;;;21.13;12.97;;;;;;;11.80;100.00;100049.63;4158197;28;20336;-77
2022/10/08 05:00:49;;;;;;;23.13;13.10;;;;;;;11.78;100.00;100051.59;4153871;28;20338;-77
2022/10/08 05:03:16;;;;;;;22.93;13.73;;;;;;;11.74;100.00;100049.44;4163168;28;20269;-76
2022/10/08 05:05:44;;;;;;;21.47;13.77;;;;;;;11.78;100.00;100046.28;4168708;28;21782;-77
2022/10/08 05:08:11;;;;;;;22.90;13.20;;;;;;;11.79;100.00;100053.25;4168257;28;21147;-78
2022/10/08 05:10:38;;;;;;;24.13;13.47;;;;;;;11.61;100.00;100045.41;4163860;28;20423;-79
2022/10/08 05:13:04;;;;;;;25.50;14.70;;;;;;;11.61;100.00;100047.19;4224948;29;20235;-76
2022/10/08 05:15:36;;;;;;;25.77;14.13;;;;;;;11.68;100.00;100048.22;4207618;28;21347;-77
2022/10/08 05:18:03;;;;;;;24.60;13.07;;;;;;;11.81;100.00;100047.78;4220979;28;20630;-76
2022/10/08 05:20:30;;;;;;;25.50;13.67;;;;;;;11.86;100.00;100052.63;4217140;28;20251;-77
2022/10/08 05:22:58;;;;;;;21.27;13.30;;;;;;;11.98;100.00;100054.00;4253046;28;21737;-78
2022/10/08 05:25:24;;;;;;;22.37;12.93;;;;;;;12.02;100.00;100058.03;4219355;28;20236;-75
2022/10/08 05:27:51;;;;;;;24.37;14.10;;;;;;;11.97;100.00;100057.69;4200672;28;20232;-78
2022/10/08 05:30:18;;;;;;;27.97;13.17;;;;;;;12.01;100.00;100056.34;4188965;28;20988;-77
2022/10/08 05:32:47;;;;;;;23.93;13.03;;;;;;;11.99;100.00;100056.53;4179490;28;22710;-77
2022/10/08 05:35:15;;;;;;;21.97;12.60;;;;;;;12.10;100.00;100060.69;4187724;28;20250;-76
2022/10/08 05:37:41;;;;;;;25.33;13.97;;;;;;;12.16;100.00;100060.03;4175923;28;20318;-76
2022/10/08 05:40:08;;;;;;;21.83;12.80;;;;;;;12.29;100.00;100059.56;4194646;28;20630;-78
2022/10/08 05:42:35;;;;;;;21.63;13.10;;;;;;;12.46;100.00;100063.09;4197912;28;21727;-78
2022/10/08 05:45:04;;;;;;;23.77;13.43;;;;;;;12.50;100.00;100064.41;4189793;28;20267;-80
2022/10/08 05:47:30;;;;;;;20.27;13.20;;;;;;;12.78;99.56;100064.06;4173012;28;20243;-76
2022/10/08 05:49:57;;;;;;;23.00;12.97;;;;;;;12.84;98.71;100069.56;4182113;28;20238;-76
2022/10/08 05:52:25;;;;;;;23.43;12.63;;;;;;;12.87;98.34;100074.56;4188341;28;20317;-76
2022/10/08 05:54:52;;;;;;;25.37;12.80;;;;;;;12.89;99.34;100082.41;4165060;28;20303;-77
2022/10/08 05:57:18;;;;;;;22.83;13.13;;;;;;;12.90;98.76;100078.75;4187335;28;20234;-77
2022/10/08 05:59:45;;;;;;;27.70;12.83;;;;;;;13.08;98.09;100082.03;4167303;28;21221;-79
2022/10/08 06:02:12;;;;;;;31.53;13.20;;;;;;;13.10;97.95;100085.38;4181486;28;21686;-76
2022/10/08 06:04:38;;;;;;;22.17;12.87;;;;;;;13.20;97.29;100089.69;4165887;28;20667;-78
2022/10/08 06:07:05;;;;;;;24.47;13.53;;;;;;;13.16;97.07;100080.34;4172884;28;20243;-78
2022/10/08 06:09:31;;;;;;;23.30;13.07;;;;;;;13.01;97.49;100083.72;4177599;28;20299;-78
2022/10/08 06:11:58;;;;;;;22.27;12.20;;;;;;;13.18;97.62;100086.38;4175589;28;20312;-80
2022/10/08 06:14:26;;;;;;;25.00;13.23;;;;;;;13.15;97.93;100084.88;4157337;28;20677;-78
2022/10/08 06:16:53;;;;;;;24.10;12.60;;;;;;;13.18;97.58;100086.38;4167168;28;20268;-77
2022/10/08 06:19:19;;;;;;;27.43;13.83;;;;;;;13.07;98.14;100082.22;4174812;28;25109;-75
2022/10/08 06:21:46;;;;;;;24.27;13.17;;;;;;;13.20;97.81;100084.34;4178556;28;20246;-78
2022/10/08 06:24:13;;;;;;;20.53;12.27;;;;;;;13.15;97.72;100086.72;4187246;28;20235;-79
2022/10/08 06:26:41;;;;;;;25.63;13.10;;;;;;;13.34;97.51;100085.53;4188979;28;20613;-78
2022/10/08 06:29:15;;;;;;;26.97;13.50;;;;;;;13.48;96.38;100082.13;4178650;28;20234;-77
2022/10/08 06:31:41;;;;;;;26.93;13.93;;;;;;;13.47;96.49;100083.97;4177650;28;21609;-78
2022/10/08 06:34:08;;;;;;;24.23;12.80;;;;;;;13.52;96.55;100089.63;4178970;28;21506;-78
2022/10/08 06:36:36;;;;;;;20.80;12.23;;;;;;;13.70;95.72;100086.75;4179842;28;20244;-79
2022/10/08 06:39:12;;;;;;;27.30;13.30;;;;;;;13.75;95.34;100093.41;4157379;28;20336;-76
2022/10/08 06:41:39;;;;;;;38.83;17.13;;;;;;;13.71;95.37;100095.59;4185095;28;20238;-77
2022/10/08 06:44:07;;;;;;;23.83;13.03;;;;;;;13.75;95.59;100096.09;4196358;28;20338;-76
2022/10/08 06:46:34;;;;;;;21.37;12.87;;;;;;;13.72;95.41;100097.28;4172775;28;21602;-78
2022/10/08 06:49:01;;;;;;;25.40;12.93;;;;;;;13.79;95.26;100089.34;4179508;28;20375;-77
2022/10/08 06:51:29;;;;;;;23.87;13.00;;;;;;;13.74;95.40;100092.56;4195350;28;21665;-79
2022/10/08 06:53:57;;;;;;;23.00;12.17;;;;;;;13.83;95.88;100098.72;4173758;28;21070;-79
2022/10/08 06:56:34;;;;;;;29.63;13.00;;;;;;;13.79;96.15;100095.56;4171595;28;20237;-77
2022/10/08 06:59:01;;;;;;;24.77;14.60;;;;;;;13.94;95.10;100099.16;4170132;28;22836;-77
2022/10/08 07:01:28;;;;;;;22.13;13.07;;;;;;;13.90;95.40;100100.50;4206191;28;20276;-77
2022/10/08 07:04:00;;;;;;;22.80;11.97;;;;;;;14.11;95.21;100099.06;4153455;28;20246;-77
2022/10/08 07:06:27;;;;;;;27.13;12.37;;;;;;;14.17;94.94;100098.38;4175785;28;21927;-79
2022/10/08 07:08:55;;;;;;;21.10;12.47;;;;;;;14.28;94.00;100097.13;4183228;28;20231;-78
2022/10/08 07:11:23;;;;;;;21.10;12.37;;;;;;;14.35;94.04;100092.72;4179992;28;20249;-77
2022/10/08 07:13:49;;;;;;;21.57;11.90;;;;;;;14.35;93.63;100098.91;4154125;28;20630;-79
2022/10/08 07:16:18;;;;;;;24.00;12.50;;;;;;;14.25;94.13;100102.81;4172045;28;20268;-78
2022/10/08 07:18:48;;;;;;;26.57;12.83;;;;;;;14.21;94.93;100099.69;4184518;28;20428;-78
2022/10/08 07:21:16;;;;;;;23.03;12.17;;;;;;;14.43;93.93;100097.19;4169291;28;20230;-76
2022/10/08 07:23:43;;;;;;;18.77;11.70;;;;;;;14.54;93.29;100094.97;4154994;28;20306;-72
2022/10/08 07:26:15;;;;;;;22.70;12.37;;;;;;;14.56;92.89;100092.94;4181488;28;20284;-76
2022/10/08 07:29:03;;;;;;;25.87;12.47;;;;;;;14.61;92.82;100097.75;4164875;28;20231;-72
2022/10/08 07:31:32;;;;;;;19.50;11.63;;;;;;;14.66;92.43;100095.38;4162505;28;20254;-76
2022/10/08 07:34:01;;;;;;;25.17;12.60;;;;;;;14.65;92.74;100093.69;4167042;28;20238;-73
2022/10/08 07:36:28;;;;;;;25.60;12.03;;;;;;;14.72;92.63;100093.81;4168301;28;20301;-72
2022/10/08 07:39:04;;;;;;;21.90;12.13;;;;;;;14.73;93.01;100098.16;4154059;28;20890;-74
2022/10/08 07:41:30;;;;;;;21.37;12.20;;;;;;;14.81;93.04;100097.25;4163073;28;20233;-72
2022/10/08 07:43:59;;;;;;;26.47;12.90;;;;;;;14.95;92.30;100085.75;4156608;28;20249;-72
2022/10/08 07:46:28;;;;;;;21.87;11.30;;;;;;;15.10;91.97;100091.09;4159639;28;20350;-75
2022/10/08 07:48:57;;;;;;;22.23;12.33;;;;;;;15.10;91.37;100083.06;4159854;28;20939;-75
2022/10/08 07:51:25;;;;;;;18.73;12.40;;;;;;;15.11;90.98;100082.91;4162736;28;20243;-76
2022/10/08 07:53:51;;;;;;;20.67;12.10;;;;;;;15.17;90.73;100084.00;4200901;28;20240;-80
2022/10/08 07:56:19;;;;;;;21.77;12.37;;;;;;;15.19;90.52;100082.81;4188362;28;25240;-79
2022/10/08 07:58:47;;;;;;;18.80;11.23;;;;;;;15.34;90.47;100080.16;4160673;28;20424;-73
2022/10/08 08:01:20;;;;;;;24.93;12.53;;;;;;;15.44;89.52;100084.41;4165649;28;21831;-75
2022/10/08 08:04:13;;;;;;;31.53;11.93;;;;;;;15.49;89.60;100085.50;4160899;28;20323;-75
2022/10/08 08:06:48;;;;;;;21.97;11.23;;;;;;;15.76;88.71;100075.16;4177170;28;22466;-74
2022/10/08 08:09:15;;;;;;;23.53;11.57;;;;;;;15.92;87.13;100079.44;4162564;28;20380;-73
2022/10/08 08:11:42;;;;;;;17.33;10.67;;;;;;;15.82;87.09;100077.06;4160855;28;20240;-75
2022/10/08 08:14:08;;;;;;;18.57;12.23;;;;;;;15.79;87.25;100074.78;4159806;28;20729;-72
2022/10/08 08:16:35;;;;;;;21.60;11.03;;;;;;;16.02;86.97;100080.81;4161079;28;20683;-73
2022/10/08 08:19:03;;;;;;;21.90;11.30;;;;;;;16.19;85.47;100069.84;4154864;28;20227;-72
2022/10/08 08:21:32;;;;;;;19.17;10.60;;;;;;;16.23;85.17;100063.91;4158499;28;20230;-71
2022/10/08 08:24:05;;;;;;;20.00;11.00;;;;;;;16.50;83.32;100069.53;4163798;28;20392;-79
2022/10/08 08:26:34;;;;;;;24.07;10.73;;;;;;;16.60;82.12;100075.44;4164177;28;20644;-75
2022/10/08 08:29:05;;;;;;;17.60;10.27;;;;;;;16.85;80.96;100072.34;4172337;28;21197;-78
2022/10/08 08:31:34;;;;;;;22.37;11.00;;;;;;;17.57;78.43;100075.69;4175761;28;21663;-73
2022/10/08 08:34:04;;;;;;;16.70;9.10;;;;;;;18.80;72.03;100087.25;4154337;28;20595;-71
2022/10/08 08:36:33;;;;;;;15.90;9.13;;;;;;;18.62;71.40;100095.09;4173130;28;20231;-73
2022/10/08 08:39:00;;;;;;;16.13;8.87;;;;;;;18.13;72.48;100081.75;4166536;28;20250;-72
2022/10/08 08:41:32;;;;;;;20.40;10.20;;;;;;;17.55;75.60;100078.59;4161972;28;20247;-72
2022/10/08 08:44:01;;;;;;;23.23;9.70;;;;;;;17.79;75.37;100079.94;4159181;28;20242;-72
2022/10/08 08:46:31;;;;;;;20.77;10.03;;;;;;;17.84;74.56;100082.03;4165085;28;27117;-75
2022/10/08 08:49:04;;;;;;;23.13;9.67;;;;;;;17.77;74.65;100075.78;4162439;28;20933;-73
2022/10/08 08:51:30;;;;;;;16.40;9.27;;;;;;;17.82;74.86;100068.81;4164010;28;20685;-75
2022/10/08 08:53:58;;;;;;;16.90;10.10;;;;;;;18.18;73.31;100074.91;4176285;28;20389;-75
2022/10/08 08:56:24;;;;;;;20.10;9.77;;;;;;;18.40;72.16;100071.00;4172650;28;20283;-74
2022/10/08 08:59:19;;;;;;;19.57;10.10;;;;;;;18.45;71.19;100073.94;4154896;28;20322;-74
2022/10/08 09:01:47;;;;;;;18.47;8.80;;;;;;;18.41;70.58;100072.69;4177036;28;20254;-74
2022/10/08 09:04:38;;;;;;;22.40;9.40;;;;;;;18.41;71.05;100072.69;4193274;28;20240;-71
2022/10/08 09:07:13;;;;;;;20.40;9.77;;;;;;;18.41;70.64;100072.69;4167690;28;22385;-72
2022/10/08 09:09:43;;;;;;;18.33;9.50;;;;;;;18.34;70.96;100067.28;4173260;28;20476;-73
2022/10/08 09:12:15;;;;;;;24.27;9.10;;;;;;;18.59;69.77;100068.53;4188139;28;21767;-75
2022/10/08 09:14:53;;;;;;;16.30;8.73;;;;;;;18.65;69.95;100073.94;4166851;28;20306;-72
2022/10/08 09:17:37;;;;;;;17.40;9.33;;;;;;;18.77;69.46;100072.31;4168878;28;20235;-75
2022/10/08 09:20:04;;;;;;;14.07;8.47;;;;;;;18.98;68.84;100073.94;4170411;28;20247;-77
2022/10/08 09:22:36;;;;;;;17.07;8.87;;;;;;;19.24;67.95;100082.22;4173555;28;20247;-74
2022/10/08 09:25:06;;;;;;;15.33;8.63;;;;;;;19.10;67.57;100073.31;4193600;28;21148;-76
2022/10/08 09:27:43;;;;;;;19.23;9.00;;;;;;;19.16;68.96;100075.19;4157965;28;20243;-71
2022/10/08 09:30:34;;;;;;;20.97;8.23;;;;;;;19.26;67.14;100078.28;4169186;28;20245;-73
2022/10/08 09:33:17;;;;;;;17.00;9.03;;;;;;;19.21;67.40;100077.25;4175194;28;20253;-74
2022/10/08 09:35:49;;;;;;;20.63;8.37;;;;;;;19.28;67.32;100073.50;4165410;28;20448;-76
2022/10/08 09:38:27;;;;;;;17.80;9.00;;;;;;;19.31;66.85;100066.84;4146023;28;21464;-73
2022/10/08 09:41:06;;;;;;;18.03;9.23;;;;;;;19.60;66.80;100070.94;4171336;28;20243;-79
2022/10/08 09:43:33;;;;;;;15.30;8.70;;;;;;;20.02;64.62;100069.53;4172607;28;22961;-74
2022/10/08 09:46:10;;;;;;;14.87;9.20;;;;;;;19.91;66.49;100059.41;4168436;28;20311;-74
2022/10/08 09:48:38;;;;;;;18.67;8.87;;;;;;;19.72;65.95;100066.56;4159247;28;20299;-75
2022/10/08 09:51:14;;;;;;;13.47;8.57;;;;;;;19.67;65.48;100060.94;4173067;28;20245;-75
2022/10/08 09:53:52;;;;;;;14.90;9.53;;;;;;;19.84;65.64;100057.78;4162278;28;20316;-72
2022/10/08 09:56:26;;;;;;;13.00;7.60;;;;;;;19.67;65.83;100057.41;4175867;28;20234;-74
2022/10/08 09:59:01;;;;;;;14.17;8.30;;;;;;;19.86;65.12;100053.00;4193066;28;26363;-76
2022/10/08 10:01:30;;;;;;;14.37;8.10;;;;;;;19.93;64.12;100053.78;4175341;28;21754;-75
2022/10/08 10:04:01;;;;;;;15.17;8.20;;;;;;;19.81;64.96;100050.94;4157850;28;20240;-74
2022/10/08 10:06:36;;;;;;;15.27;8.60;;;;;;;19.64;65.50;100053.25;4169463;28;20551;-78
2022/10/08 10:09:19;;;;;;;14.00;7.87;;;;;;;19.35;67.29;100049.22;4175077;28;20357;-79
2022/10/08 10:11:51;;;;;;;18.33;8.67;;;;;;;19.24;67.93;100049.84;4183316;28;20615;-74
2022/10/08 10:14:27;;;;;;;20.13;8.97;;;;;;;19.34;68.09;100051.09;4179944;28;22080;-72
2022/10/08 10:17:18;;;;;;;14.47;8.07;;;;;;;19.24;68.22;100045.28;4169549;28;20229;-75
2022/10/08 10:19:52;;;;;;;12.17;7.80;;;;;;;19.11;67.55;100040.75;4181564;28;20305;-71
2022/10/08 10:22:25;;;;;;;16.90;8.00;;;;;;;18.86;69.21;100031.66;4164651;28;20238;-75
2022/10/08 10:24:58;;;;;;;13.63;8.57;;;;;;;18.65;70.72;100036.22;4181604;28;20234;-74
2022/10/08 10:27:31;;;;;;;12.57;8.23;;;;;;;18.82;70.34;100033.13;4160659;28;20417;-74
2022/10/08 10:30:22;;;;;;;27.30;9.30;;;;;;;18.82;70.13;100031.25;4176530;28;23633;-74
2022/10/08 10:32:53;;;;;;;15.13;9.80;;;;;;;18.77;70.90;100031.03;4188370;28;20416;-73
2022/10/08 10:35:24;;;;;;;16.53;9.30;;;;;;;18.62;71.22;100022.34;4177963;28;21123;-71
2022/10/08 10:38:12;;;;;;;17.17;8.60;;;;;;;18.69;72.09;100021.28;4169817;28;20240;-72
2022/10/08 10:40:41;;;;;;;18.20;8.73;;;;;;;18.53;72.67;100021.72;4173093;28;20283;-75
2022/10/08 10:43:25;;;;;;;18.53;10.27;;;;;;;18.38;73.38;100015.69;4158391;28;21822;-78
2022/10/08 10:46:16;;;;;;;16.73;8.73;;;;;;;18.26;73.73;100019.00;4186694;28;20308;-72
2022/10/08 10:48:42;;;;;;;12.27;8.50;;;;;;;18.28;73.78;100005.31;4177773;28;20238;-72
2022/10/08 10:51:34;;;;;;;17.60;9.87;;;;;;;18.14;74.56;99999.94;4165887;28;20239;-73
2022/10/08 10:54:19;;;;;;;18.10;10.07;;;;;;;18.18;74.67;99996.81;4178012;28;22863;-72
2022/10/08 10:56:55;;;;;;;21.93;10.00;;;;;;;18.07;76.41;99996.38;4184063;28;20388;-73
2022/10/08 10:59:45;;;;;;;16.83;9.13;;;;;;;18.08;76.72;99997.22;4169089;28;20777;-72
2022/10/08 11:02:37;;;;;;;16.93;9.60;;;;;;;18.03;77.94;99987.06;4175396;28;21850;-73
2022/10/08 11:05:21;;;;;;;16.57;9.20;;;;;;;18.13;76.92;99990.19;4188314;28;20398;-73
2022/10/08 11:08:10;;;;;;;18.20;9.67;;;;;;;18.20;77.57;99995.56;4168457;28;20384;-73
2022/10/08 11:10:55;;;;;;;20.07;9.80;;;;;;;18.19;77.09;99988.53;4172319;28;22797;-75
2022/10/08 11:13:48;;;;;;;15.37;9.73;;;;;;;18.27;75.62;99991.03;4175710;28;20232;-77
2022/10/08 11:16:39;;;;;;;19.93;9.60;;;;;;;18.34;75.36;99981.06;4163597;28;22095;-76
2022/10/08 11:19:19;;;;;;;20.93;10.80;;;;;;;18.38;75.49;99981.50;4176536;28;21774;-75
2022/10/08 11:21:54;;;;;;;19.43;9.73;;;;;;;18.34;75.94;99981.06;4158285;28;20306;-75
2022/10/08 11:24:54;;;;;;;23.90;9.90;;;;;;;18.45;74.82;99976.94;4163128;28;21404;-75
2022/10/08 11:27:35;;;;;;;15.67;9.90;;;;;;;18.45;75.02;99971.56;4167684;28;22062;-75
2022/10/08 11:30:10;;;;;;;20.27;10.33;;;;;;;18.46;75.23;99973.19;4155540;28;20239;-74